Time;durP1;ratioP1;P1;durP2;ratioP2;P2;SDS_P1;SDS_P2;PMS_P1;PMS_P2;Temp;Humidity;BMP_temperature;BMP_pressure;BME280_temperature;BME280_humidity;BME280_pressure;Samples;Min_cycle;Max_cycle;Signal;HPM_P1;HPM_P2
2023/07/31 02:08:35;;;;;;;3.90;3.50;;;;;;;24.48;98.25;100482.69;4934051;29;20067;-69
2023/07/31 02:11:03;;;;;;;4.10;3.63;;;;;;;24.40;100.00;100488.16;4970562;28;20059;-69
2023/07/31 02:13:31;;;;;;;4.72;4.32;;;;;;;24.40;100.00;100474.19;4955909;28;20051;-69
2023/07/31 02:15:59;;;;;;;7.97;4.78;;;;;;;24.27;100.00;100478.38;4956284;28;20055;-70
2023/07/31 02:18:27;;;;;;;6.57;5.05;;;;;;;24.21;100.00;100477.09;4956082;28;20047;-70
2023/07/31 02:20:56;;;;;;;8.05;4.55;;;;;;;24.14;100.00;100487.00;4956376;28;20058;-69
2023/07/31 02:23:24;;;;;;;10.68;4.95;;;;;;;24.05;100.00;100477.22;4954380;29;20058;-69
2023/07/31 02:25:52;;;;;;;7.93;4.40;;;;;;;23.96;100.00;100491.47;4955780;28;20051;-69
2023/07/31 02:28:20;;;;;;;7.22;4.53;;;;;;;23.92;100.00;100491.41;4970416;28;20394;-70
2023/07/31 02:30:51;;;;;;;4.57;4.13;;;;;;;23.90;100.00;100496.56;4955541;29;20508;-70
2023/07/31 02:33:18;;;;;;;7.32;4.63;;;;;;;23.89;100.00;100498.56;4954406;28;20063;-70
2023/07/31 02:35:47;;;;;;;4.70;4.30;;;;;;;23.95;100.00;100495.44;4970330;28;20509;-70
2023/07/31 02:38:14;;;;;;;5.00;4.57;;;;;;;23.99;100.00;100491.53;4955625;28;20052;-70
2023/07/31 02:40:42;;;;;;;5.45;4.90;;;;;;;23.98;100.00;100477.91;4955368;29;20054;-70
2023/07/31 02:43:10;;;;;;;6.20;4.72;;;;;;;24.00;100.00;100478.38;4955729;28;20051;-69
2023/07/31 02:45:38;;;;;;;6.75;4.57;;;;;;;23.91;100.00;100475.00;4955912;28;20051;-69
2023/07/31 02:48:06;;;;;;;5.80;5.03;;;;;;;23.92;100.00;100473.81;4954565;28;20055;-69
2023/07/31 02:50:33;;;;;;;9.73;5.40;;;;;;;23.87;100.00;100470.19;4953451;29;20055;-69
2023/07/31 02:53:01;;;;;;;6.10;5.50;;;;;;;23.74;100.00;100479.94;4954951;29;20051;-69
2023/07/31 02:55:29;;;;;;;5.85;5.35;;;;;;;23.73;100.00;100483.91;4953834;29;20050;-69
2023/07/31 02:57:58;;;;;;;6.80;6.13;;;;;;;23.67;100.00;100490.97;4970108;28;20051;-69
2023/07/31 03:00:26;;;;;;;7.40;5.72;;;;;;;23.62;100.00;100484.53;4969659;28;20058;-69
2023/07/31 03:02:53;;;;;;;6.30;5.43;;;;;;;23.61;100.00;100491.28;4955069;28;20059;-69
2023/07/31 03:05:21;;;;;;;6.15;5.53;;;;;;;23.52;100.00;100485.16;4955372;28;20051;-69
2023/07/31 03:07:49;;;;;;;5.90;4.72;;;;;;;23.50;100.00;100493.09;4953058;29;20047;-69
2023/07/31 03:10:17;;;;;;;5.75;5.15;;;;;;;23.45;100.00;100488.63;4953310;29;20406;-69
2023/07/31 03:12:48;;;;;;;6.20;5.57;;;;;;;23.41;100.00;100490.53;4953665;28;20059;-69
2023/07/31 03:15:16;;;;;;;5.45;4.93;;;;;;;23.41;100.00;100489.75;4969559;28;20047;-69
2023/07/31 03:17:44;;;;;;;8.05;5.90;;;;;;;23.44;100.00;100494.56;4954273;28;20059;-69
2023/07/31 03:20:12;;;;;;;5.75;5.28;;;;;;;23.39;100.00;100492.06;4969467;28;20035;-69
2023/07/31 03:22:40;;;;;;;8.10;5.20;;;;;;;23.38;100.00;100494.06;4937566;29;20058;-69
2023/07/31 03:25:10;;;;;;;6.28;5.47;;;;;;;23.40;100.00;100502.88;4954552;29;20047;-69
2023/07/31 03:27:38;;;;;;;7.05;5.07;;;;;;;23.33;100.00;100506.38;4968987;28;20047;-69
2023/07/31 03:30:06;;;;;;;6.53;5.38;;;;;;;23.34;100.00;100507.97;4954920;28;20063;-69
2023/07/31 03:32:34;;;;;;;7.40;5.15;;;;;;;23.33;100.00;100500.78;4954416;29;20482;-69
2023/07/31 03:35:03;;;;;;;6.43;5.55;;;;;;;23.38;100.00;100507.22;4953086;29;20379;-69
2023/07/31 03:37:31;;;;;;;6.18;5.18;;;;;;;23.33;100.00;100505.53;4954447;29;20058;-69
2023/07/31 03:39:58;;;;;;;7.18;5.28;;;;;;;23.25;100.00;100503.78;4955162;28;20043;-69
2023/07/31 03:42:26;;;;;;;5.88;5.32;;;;;;;23.29;100.00;100508.25;4954224;29;20035;-69
2023/07/31 03:44:54;;;;;;;8.18;6.18;;;;;;;23.29;100.00;100502.66;4954510;28;20066;-69
2023/07/31 03:47:22;;;;;;;7.70;5.72;;;;;;;23.29;100.00;100511.03;4954280;29;20047;-69
2023/07/31 03:49:50;;;;;;;6.28;5.10;;;;;;;23.30;100.00;100509.84;4954255;29;20391;-69
2023/07/31 03:52:18;;;;;;;6.28;5.60;;;;;;;23.23;100.00;100510.50;4954246;28;20051;-69
2023/07/31 03:54:46;;;;;;;6.63;5.80;;;;;;;23.22;100.00;100510.91;4954074;29;20051;-69
2023/07/31 03:57:13;;;;;;;5.90;5.30;;;;;;;23.21;100.00;100509.25;4954323;28;20043;-69
2023/07/31 03:59:41;;;;;;;7.70;5.00;;;;;;;23.17;100.00;100497.25;4954055;29;20435;-69
2023/07/31 04:02:09;;;;;;;6.07;5.43;;;;;;;23.25;100.00;100506.56;4980677;28;20053;-69
2023/07/31 04:04:37;;;;;;;7.53;5.10;;;;;;;23.34;100.00;100496.81;4992775;28;20050;-69
2023/07/31 04:07:05;;;;;;;5.75;4.82;;;;;;;23.39;100.00;100504.06;4992938;28;20520;-69
2023/07/31 04:09:32;;;;;;;5.93;5.32;;;;;;;23.41;100.00;100501.69;4992804;28;20058;-69
2023/07/31 04:12:00;;;;;;;5.40;4.90;;;;;;;23.35;100.00;100501.22;4992581;28;20051;-69
2023/07/31 04:14:28;;;;;;;6.43;5.68;;;;;;;23.39;100.00;100492.91;4992422;28;20050;-69
2023/07/31 04:16:56;;;;;;;5.65;5.03;;;;;;;23.35;100.00;100504.00;4992749;28;20401;-69
2023/07/31 04:19:24;;;;;;;5.68;5.18;;;;;;;23.42;100.00;100505.31;4991468;28;20046;-69
2023/07/31 04:21:52;;;;;;;6.45;5.68;;;;;;;23.43;100.00;100499.38;4993171;28;20058;-69
2023/07/31 04:24:24;;;;;;;5.40;4.90;;;;;;;23.56;100.00;100508.34;4992950;28;20052;-69
2023/07/31 04:26:53;;;;;;;6.72;4.88;;;;;;;23.50;100.00;100515.44;4992791;28;20065;-69
2023/07/31 04:29:20;;;;;;;7.03;5.20;;;;;;;23.51;100.00;100511.44;4994655;28;20061;-69
2023/07/31 04:31:48;;;;;;;5.93;5.32;;;;;;;23.43;100.00;100506.91;4996416;28;20047;-69
2023/07/31 04:34:16;;;;;;;5.60;4.78;;;;;;;23.52;100.00;100513.09;4996497;28;20050;-69
2023/07/31 04:36:44;;;;;;;6.20;5.35;;;;;;;23.56;100.00;100516.72;4996313;28;20070;-69
2023/07/31 04:39:12;;;;;;;7.22;5.30;;;;;;;23.58;100.00;100508.81;4996315;28;20061;-69
2023/07/31 04:41:39;;;;;;;5.68;5.15;;;;;;;23.57;100.00;100514.75;4996262;28;20057;-69
2023/07/31 04:44:07;;;;;;;6.50;5.00;;;;;;;23.60;100.00;100517.63;4996399;28;20066;-69
2023/07/31 04:46:35;;;;;;;9.38;5.50;;;;;;;23.67;100.00;100525.31;4996736;28;20059;-69
2023/07/31 04:49:04;;;;;;;6.78;5.30;;;;;;;23.64;100.00;100520.47;4996122;28;20039;-69
2023/07/31 04:51:31;;;;;;;6.00;5.43;;;;;;;23.73;100.00;100518.25;4995870;28;20050;-69
2023/07/31 04:53:59;;;;;;;5.60;4.97;;;;;;;23.76;100.00;100523.06;4995877;28;20039;-69
2023/07/31 04:56:27;;;;;;;6.20;5.60;;;;;;;23.75;100.00;100512.28;4996273;28;20099;-69
2023/07/31 04:58:55;;;;;;;5.70;5.20;;;;;;;23.72;100.00;100511.06;4995799;28;20069;-69
2023/07/31 05:01:23;;;;;;;5.05;4.55;;;;;;;23.69;100.00;100517.38;4995885;28;20508;-69
2023/07/31 05:03:51;;;;;;;7.10;5.00;;;;;;;23.65;100.00;100516.50;4995998;28;20046;-69
2023/07/31 05:06:20;;;;;;;5.90;4.70;;;;;;;23.71;100.00;100511.41;4996012;28;20042;-69
2023/07/31 05:08:48;;;;;;;6.47;5.03;;;;;;;23.74;100.00;100514.28;4995790;28;20069;-69
2023/07/31 05:11:16;;;;;;;5.10;4.68;;;;;;;23.83;100.00;100516.00;4995629;28;20050;-70
2023/07/31 05:13:43;;;;;;;7.55;5.25;;;;;;;23.87;100.00;100511.28;4994423;28;20134;-69
2023/07/31 05:16:11;;;;;;;5.53;5.03;;;;;;;23.82;100.00;100523.59;4995832;28;20054;-69
2023/07/31 05:18:39;;;;;;;4.80;4.22;;;;;;;23.90;100.00;100516.09;4995190;28;20497;-69
2023/07/31 05:21:07;;;;;;;6.43;5.55;;;;;;;23.82;100.00;100526.38;4995727;28;20054;-69
2023/07/31 05:23:35;;;;;;;7.22;5.50;;;;;;;23.95;100.00;100528.97;4995328;28;20055;-69
2023/07/31 05:26:06;;;;;;;6.75;4.90;;;;;;;23.91;100.00;100534.50;4995668;28;20053;-69
2023/07/31 05:28:35;;;;;;;5.78;5.20;;;;;;;23.91;100.00;100534.50;4995361;28;20093;-69
2023/07/31 05:31:04;;;;;;;5.43;4.93;;;;;;;24.00;100.00;100531.47;4995479;28;20057;-69
2023/07/31 05:33:33;;;;;;;6.22;5.15;;;;;;;24.09;100.00;100539.63;4994933;28;20070;-68
2023/07/31 05:36:00;;;;;;;8.48;5.20;;;;;;;24.06;100.00;100540.34;4994391;28;20059;-69
2023/07/31 05:38:28;;;;;;;7.32;4.80;;;;;;;24.12;100.00;100534.09;4995633;28;20050;-69
2023/07/31 05:40:56;;;;;;;5.18;4.72;;;;;;;24.23;100.00;100541.81;4994872;28;20077;-69
2023/07/31 05:43:24;;;;;;;5.15;4.68;;;;;;;24.24;100.00;100535.88;4995629;28;20042;-68
2023/07/31 05:45:52;;;;;;;5.47;4.97;;;;;;;24.36;99.13;100534.03;4995099;28;20401;-69
2023/07/31 05:48:20;;;;;;;5.32;4.65;;;;;;;24.37;99.03;100532.84;4995039;28;20038;-69
2023/07/31 05:50:48;;;;;;;5.38;4.70;;;;;;;24.43;98.48;100539.72;4994937;28;20398;-69
2023/07/31 05:53:16;;;;;;;7.35;5.18;;;;;;;24.43;99.64;100532.16;4994525;28;20378;-69
2023/07/31 05:55:44;;;;;;;5.30;4.82;;;;;;;24.53;100.00;100530.69;4995109;28;20073;-69
2023/07/31 05:58:11;;;;;;;14.10;5.75;;;;;;;24.64;98.49;100538.44;4994988;28;20054;-69
2023/07/31 06:00:40;;;;;;;6.00;5.10;;;;;;;24.64;100.00;100536.44;4994458;28;20478;-69
2023/07/31 06:03:08;;;;;;;6.40;5.35;;;;;;;24.67;100.00;100530.09;4996563;28;20055;-69
2023/07/31 06:05:37;;;;;;;6.45;5.75;;;;;;;24.68;99.54;100540.09;4995828;28;20050;-69
2023/07/31 06:08:05;;;;;;;6.25;5.15;;;;;;;24.63;99.62;100540.44;4997324;28;20065;-68
2023/07/31 06:10:34;;;;;;;6.30;5.22;;;;;;;24.69;99.28;100549.31;4997148;28;20061;-68
2023/07/31 06:13:03;;;;;;;5.53;5.03;;;;;;;24.76;99.50;100554.19;4996981;28;20058;-69
2023/07/31 06:15:32;;;;;;;5.43;4.60;;;;;;;24.79;97.85;100551.44;4997623;28;20058;-69
2023/07/31 06:18:01;;;;;;;5.95;4.90;;;;;;;25.01;96.78;100554.56;4997207;28;20046;-69
2023/07/31 06:20:30;;;;;;;5.00;4.60;;;;;;;25.25;95.09;100548.81;4997581;28;20081;-69
2023/07/31 06:22:59;;;;;;;9.40;5.03;;;;;;;25.46;94.82;100554.69;4997769;28;20054;-69
2023/07/31 06:25:27;;;;;;;6.65;5.07;;;;;;;25.54;93.93;100551.97;4996038;28;20062;-69
2023/07/31 06:27:55;;;;;;;5.60;4.45;;;;;;;25.70;92.98;100560.97;4995428;28;20505;-69
2023/07/31 06:30:24;;;;;;;5.72;5.13;;;;;;;26.07;92.00;100572.50;4995298;28;20406;-69
2023/07/31 06:32:53;;;;;;;4.80;4.40;;;;;;;26.24;91.53;100565.47;4993955;28;20398;-69
2023/07/31 06:35:21;;;;;;;5.35;4.35;;;;;;;26.18;90.96;100562.19;4995798;28;20061;-69
2023/07/31 06:37:51;;;;;;;4.45;3.92;;;;;;;26.41;88.59;100566.78;4995122;28;20371;-69
2023/07/31 06:40:19;;;;;;;4.93;4.50;;;;;;;26.53;89.03;100565.66;4995512;28;20050;-69
2023/07/31 06:42:48;;;;;;;5.15;4.65;;;;;;;26.79;88.78;100575.84;4995611;28;20050;-69
2023/07/31 06:45:17;;;;;;;5.43;4.93;;;;;;;26.84;87.83;100572.66;4996077;28;20373;-70
2023/07/31 06:47:46;;;;;;;5.18;4.03;;;;;;;27.14;85.22;100568.03;4996354;28;20055;-69
2023/07/31 06:50:15;;;;;;;4.53;3.92;;;;;;;27.22;83.55;100566.06;4996039;28;20054;-70
2023/07/31 06:52:43;;;;;;;6.20;4.30;;;;;;;27.59;81.06;100576.22;4995107;28;20054;-69
2023/07/31 06:55:20;;;;;;;4.57;4.15;;;;;;;27.67;81.34;100579.03;4995878;28;20047;-69
2023/07/31 06:57:50;;;;;;;5.20;4.70;;;;;;;27.89;82.13;100571.44;4996424;28;20050;-70
2023/07/31 07:00:20;;;;;;;4.80;4.15;;;;;;;27.69;78.28;100574.63;4995884;28;20493;-69
2023/07/31 07:02:49;;;;;;;5.28;4.50;;;;;;;27.65;80.58;100575.84;4995952;28;20058;-69
2023/07/31 07:05:18;;;;;;;5.38;4.43;;;;;;;27.99;79.68;100581.06;4995924;28;20050;-69
2023/07/31 07:07:50;;;;;;;4.32;3.92;;;;;;;28.02;77.79;100574.66;4996072;28;20050;-69
2023/07/31 07:10:19;;;;;;;4.70;4.20;;;;;;;27.99;76.98;100572.66;4996207;28;20062;-69
2023/07/31 07:12:48;;;;;;;4.85;3.95;;;;;;;28.20;73.84;100580.28;4996446;28;20077;-69
2023/07/31 07:15:17;;;;;;;3.78;3.47;;;;;;;28.63;73.91;100581.50;4995819;28;20401;-69
2023/07/31 07:17:45;;;;;;;4.45;3.55;;;;;;;28.43;71.87;100577.09;4995547;28;20046;-69
2023/07/31 07:20:14;;;;;;;3.70;3.40;;;;;;;28.37;73.13;100586.34;4995719;28;20050;-69
2023/07/31 07:22:43;;;;;;;4.57;4.18;;;;;;;28.27;77.39;100582.31;4995982;28;20065;-69
2023/07/31 07:25:11;;;;;;;3.60;3.30;;;;;;;28.36;72.82;100579.09;4995614;28;20054;-69
2023/07/31 07:27:40;;;;;;;4.43;3.88;;;;;;;28.49;75.84;100587.94;4995806;28;20599;-69
2023/07/31 07:30:09;;;;;;;4.03;3.28;;;;;;;28.15;72.90;100586.34;4995802;28;20058;-69
2023/07/31 07:32:38;;;;;;;3.65;3.35;;;;;;;28.02;75.70;100586.69;4995517;28;20058;-69
2023/07/31 07:35:07;;;;;;;3.40;3.20;;;;;;;28.28;74.41;100583.94;4995371;28;20062;-69
2023/07/31 07:37:36;;;;;;;4.75;3.10;;;;;;;28.48;72.46;100589.16;4994586;28;20050;-69
2023/07/31 07:40:05;;;;;;;4.15;3.40;;;;;;;28.34;71.83;100582.31;4993648;28;20752;-68
2023/07/31 07:42:34;;;;;;;5.95;2.90;;;;;;;28.11;74.36;100580.69;4994519;28;20502;-69
2023/07/31 07:45:03;;;;;;;5.25;3.15;;;;;;;27.94;71.97;100578.69;4993765;28;20413;-68
2023/07/31 07:47:31;;;;;;;3.10;2.80;;;;;;;27.87;72.65;100585.09;4993386;28;20042;-70
2023/07/31 07:50:00;;;;;;;3.05;2.70;;;;;;;27.74;74.49;100581.84;4992308;28;20521;-69
2023/07/31 07:52:28;;;;;;;3.55;2.58;;;;;;;28.07;74.14;100570.63;4993140;28;20406;-68
2023/07/31 07:54:57;;;;;;;3.38;2.72;;;;;;;28.36;71.11;100577.09;4993173;28;20050;-69
2023/07/31 07:57:26;;;;;;;3.92;2.72;;;;;;;28.20;72.02;100571.84;4993669;28;20038;-68
2023/07/31 07:59:55;;;;;;;3.88;2.40;;;;;;;28.41;72.16;100576.69;4994885;28;20054;-69
2023/07/31 08:02:24;;;;;;;3.47;2.78;;;;;;;28.27;73.22;100583.13;4994781;28;20046;-69
2023/07/31 08:04:52;;;;;;;2.60;2.40;;;;;;;28.34;72.60;100581.53;4994605;28;20054;-68
2023/07/31 08:07:22;;;;;;;3.35;2.80;;;;;;;28.48;72.31;100575.88;4994930;28;20050;-69
2023/07/31 08:09:51;;;;;;;2.67;2.40;;;;;;;28.50;72.56;100569.84;4994377;28;20077;-68
2023/07/31 08:12:19;;;;;;;3.63;2.15;;;;;;;28.45;72.27;100565.44;4994830;28;20058;-69
2023/07/31 08:14:48;;;;;;;3.42;2.50;;;;;;;28.69;73.29;100568.59;4994807;28;20116;-69
2023/07/31 08:17:16;;;;;;;3.33;2.90;;;;;;;28.49;72.02;100571.84;4994370;28;20061;-68
2023/07/31 08:19:46;;;;;;;3.03;2.75;;;;;;;28.21;71.27;100572.66;4995086;28;20054;-69
2023/07/31 08:22:14;;;;;;;2.50;2.30;;;;;;;28.63;69.97;100573.03;4994813;28;20050;-68
2023/07/31 08:24:43;;;;;;;3.20;2.90;;;;;;;27.92;72.97;100581.06;4994682;28;20050;-69
2023/07/31 08:27:12;;;;;;;2.53;2.33;;;;;;;27.90;73.85;100578.66;4994797;28;20061;-69
2023/07/31 08:29:40;;;;;;;5.82;3.00;;;;;;;28.50;70.15;100583.91;4994944;28;20054;-69
2023/07/31 08:32:09;;;;;;;2.85;2.65;;;;;;;28.82;68.56;100583.03;4994511;28;20046;-70
2023/07/31 08:34:38;;;;;;;2.42;2.20;;;;;;;28.84;68.51;100586.25;4994395;28;20062;-69
2023/07/31 08:37:06;;;;;;;3.35;2.50;;;;;;;28.94;68.22;100582.63;4994740;28;20046;-69
2023/07/31 08:39:35;;;;;;;3.10;2.67;;;;;;;28.76;66.19;100571.41;4994549;28;20059;-69
2023/07/31 08:42:04;;;;;;;2.53;1.77;;;;;;;29.53;65.31;100576.75;4995175;28;20394;-69
2023/07/31 08:44:34;;;;;;;2.63;1.80;;;;;;;29.52;61.53;100581.59;4994607;28;20042;-69
2023/07/31 08:47:02;;;;;;;1.42;1.33;;;;;;;29.47;59.28;100574.31;4994857;28;20050;-69
2023/07/31 08:49:32;;;;;;;1.52;1.42;;;;;;;29.49;55.80;100580.41;4994681;28;20058;-69
2023/07/31 08:52:01;;;;;;;2.28;1.60;;;;;;;29.37;57.99;100578.00;4992997;28;20054;-69
2023/07/31 08:54:30;;;;;;;1.48;1.38;;;;;;;29.58;56.47;100590.41;4992687;28;20413;-69
2023/07/31 08:57:00;;;;;;;1.65;1.55;;;;;;;29.70;54.81;100584.28;4991419;28;20050;-69
2023/07/31 08:59:31;;;;;;;1.65;1.30;;;;;;;30.04;55.02;100583.66;4992462;28;20057;-69
2023/07/31 09:02:05;;;;;;;1.92;1.30;;;;;;;29.94;56.89;100581.72;4992989;28;20065;-69
2023/07/31 09:04:33;;;;;;;;;;;;;;;29.88;55.02;100586.19;4993508;28;20405;-69
2023/07/31 09:07:04;;;;;;;1.98;1.23;;;;;;;29.90;55.31;100575.28;4992734;28;19926;-69
2023/07/31 09:09:33;;;;;;;1.60;1.50;;;;;;;29.92;56.57;100567.22;4992691;28;20062;-69
2023/07/31 09:12:01;;;;;;;1.48;1.38;;;;;;;30.42;54.30;100576.50;4993265;28;20050;-69
2023/07/31 09:14:30;;;;;;;1.25;1.15;;;;;;;30.06;53.23;100562.69;4993137;28;20054;-69
2023/07/31 09:17:02;;;;;;;1.50;1.40;;;;;;;30.29;53.16;100557.25;4996167;28;20043;-69
2023/07/31 09:19:37;;;;;;;1.40;1.30;;;;;;;30.46;54.29;100563.16;4996438;28;20113;-68
2023/07/31 09:22:06;;;;;;;1.58;1.48;;;;;;;29.96;53.07;100553.09;4996842;28;20055;-68
2023/07/31 09:24:35;;;;;;;0.93;0.88;;;;;;;30.02;53.93;100549.38;4997106;28;20053;-68
2023/07/31 09:27:05;;;;;;;1.05;1.05;;;;;;;29.92;54.93;100544.66;4996693;28;20054;-68
2023/07/31 09:29:34;;;;;;;1.38;1.10;;;;;;;30.03;54.95;100547.38;4996963;28;20148;-69
2023/07/31 09:32:03;;;;;;;1.38;1.08;;;;;;;30.12;52.80;100542.09;4997242;28;20054;-68
2023/07/31 09:34:41;;;;;;;1.45;0.98;;;;;;;30.75;53.74;100539.47;4996644;28;20093;-68
2023/07/31 09:37:11;;;;;;;1.17;1.10;;;;;;;31.05;52.63;100538.69;4996746;28;20050;-68
2023/07/31 09:39:47;;;;;;;1.42;1.30;;;;;;;30.85;53.09;100549.84;4997218;28;20073;-69
2023/07/31 09:42:26;;;;;;;1.20;1.10;;;;;;;30.54;54.51;100538.47;4996727;28;20054;-68
2023/07/31 09:45:07;;;;;;;1.05;1.05;;;;;;;30.52;53.28;100553.00;4996788;28;20053;-69
2023/07/31 09:47:36;;;;;;;0.95;0.95;;;;;;;30.21;51.92;100541.63;4997178;28;20059;-69
2023/07/31 09:50:08;;;;;;;0.98;0.98;;;;;;;30.27;52.32;100547.59;4996970;28;20046;-68
2023/07/31 09:52:39;;;;;;;1.20;1.10;;;;;;;30.28;55.12;100533.06;4996262;28;20061;-68
2023/07/31 09:55:08;;;;;;;1.00;1.00;;;;;;;30.56;52.29;100539.63;4996762;28;20061;-68
2023/07/31 09:57:42;;;;;;;1.25;1.08;;;;;;;30.39;51.56;100540.66;4996656;28;20058;-69
2023/07/31 10:00:12;;;;;;;1.25;1.15;;;;;;;30.53;52.62;100548.94;4996661;28;20113;-69
2023/07/31 10:02:46;;;;;;;1.60;1.50;;;;;;;30.50;52.50;100554.63;4996358;28;20515;-68
2023/07/31 10:05:16;;;;;;;1.00;0.90;;;;;;;30.40;52.82;100545.06;4995449;28;20058;-69
2023/07/31 10:08:05;;;;;;;1.48;1.15;;;;;;;30.58;52.66;100544.84;4994085;28;20050;-70
2023/07/31 10:10:37;;;;;;;1.20;1.10;;;;;;;30.81;51.07;100546.25;4995322;28;20398;-69
2023/07/31 10:13:06;;;;;;;2.28;1.30;;;;;;;31.07;54.13;100536.25;4993800;28;20387;-69
2023/07/31 10:15:36;;;;;;;2.88;1.30;;;;;;;31.32;51.69;100529.47;4995015;28;20062;-68
2023/07/31 10:18:08;;;;;;;1.50;1.40;;;;;;;31.59;52.78;100537.16;4995244;28;20134;-69
2023/07/31 10:20:37;;;;;;;1.48;1.38;;;;;;;31.53;53.05;100538.06;4994921;28;20077;-68
2023/07/31 10:23:06;;;;;;;2.95;1.70;;;;;;;31.44;50.25;100530.91;4995412;28;20054;-68
2023/07/31 10:25:36;;;;;;;1.00;1.00;;;;;;;31.29;51.10;100524.69;4996561;28;20046;-68
2023/07/31 10:28:04;;;;;;;1.40;1.30;;;;;;;31.31;49.68;100530.69;4995281;28;20077;-69
2023/07/31 10:30:37;;;;;;;1.52;1.35;;;;;;;31.28;52.66;100528.72;4994748;28;20076;-68
2023/07/31 10:33:07;;;;;;;2.17;1.30;;;;;;;30.68;50.13;100532.69;4995260;28;20054;-69
2023/07/31 10:35:36;;;;;;;2.35;1.33;;;;;;;30.71;50.73;100528.22;4995678;28;20077;-68
2023/07/31 10:38:11;;;;;;;3.72;1.25;;;;;;;31.26;51.00;100525.50;4995694;28;20050;-68
2023/07/31 10:40:41;;;;;;;1.70;1.42;;;;;;;31.74;48.55;100522.78;4994896;28;20058;-68
2023/07/31 10:43:25;;;;;;;1.08;1.05;;;;;;;31.44;53.32;100513.16;4995095;28;20051;-68
2023/07/31 10:45:53;;;;;;;1.60;1.38;;;;;;;31.27;48.96;100527.13;4995059;28;20050;-68
2023/07/31 10:48:23;;;;;;;2.13;1.50;;;;;;;30.53;50.57;100515.06;4995484;28;20046;-68
2023/07/31 10:50:56;;;;;;;1.30;1.20;;;;;;;30.64;56.17;100519.81;4994909;28;20077;-68
2023/07/31 10:53:25;;;;;;;1.50;1.10;;;;;;;30.91;51.64;100516.25;4994338;28;20053;-68
2023/07/31 10:55:58;;;;;;;1.95;1.70;;;;;;;30.95;51.59;100517.03;4995416;28;20050;-69
2023/07/31 10:58:26;;;;;;;2.13;1.23;;;;;;;31.16;52.86;100507.47;4995553;28;20054;-68
2023/07/31 11:00:57;;;;;;;1.65;1.30;;;;;;;31.15;51.13;100520.00;4995515;28;20050;-68
2023/07/31 11:03:40;;;;;;;2.08;1.48;;;;;;;31.25;50.82;100515.41;4995410;28;20500;-68
2023/07/31 11:06:09;;;;;;;1.58;1.48;;;;;;;30.58;52.17;100516.63;4994839;28;20047;-68
2023/07/31 11:08:45;;;;;;;1.35;1.25;;;;;;;31.06;51.46;100517.69;4994878;28;20047;-68
2023/07/31 11:11:17;;;;;;;1.17;1.17;;;;;;;30.63;52.01;100509.72;4994565;28;20398;-68
2023/07/31 11:13:49;;;;;;;1.40;1.30;;;;;;;31.36;51.05;100515.28;4994632;28;20042;-68
2023/07/31 11:16:20;;;;;;;1.58;1.05;;;;;;;31.46;52.30;100522.00;4994386;28;20061;-69
2023/07/31 11:18:49;;;;;;;1.48;1.38;;;;;;;31.42;50.88;100521.25;4993502;28;20046;-69
2023/07/31 11:21:22;;;;;;;1.40;1.23;;;;;;;31.85;49.25;100520.59;4993429;28;20407;-68
2023/07/31 11:23:52;;;;;;;;;;;;;;;31.24;50.09;100516.63;4993812;28;20056;-68
2023/07/31 11:26:21;;;;;;;1.70;1.60;;;;;;;32.23;51.33;100530.06;4993427;28;19921;-69
2023/07/31 11:28:50;;;;;;;1.10;1.10;;;;;;;32.14;49.23;100525.78;4993712;28;20058;-69
2023/07/31 11:31:19;;;;;;;2.35;1.13;;;;;;;32.12;49.67;100514.09;4991889;28;20042;-69
2023/07/31 11:33:48;;;;;;;2.55;1.25;;;;;;;32.02;49.79;100506.59;4991709;28;20054;-68
2023/07/31 11:36:18;;;;;;;2.90;1.45;;;;;;;32.13;50.20;100509.22;4993478;28;20042;-69
2023/07/31 11:38:47;;;;;;;0.85;0.82;;;;;;;31.98;50.22;100503.00;4993400;28;20046;-70
2023/07/31 11:41:17;;;;;;;1.80;1.17;;;;;;;31.68;49.74;100511.16;4993775;28;20052;-68
2023/07/31 11:43:47;;;;;;;3.22;1.33;;;;;;;31.78;49.76;100495.25;4993742;28;20077;-69
2023/07/31 11:46:16;;;;;;;1.48;1.20;;;;;;;31.48;52.88;100488.44;4993900;28;20058;-69
2023/07/31 11:48:45;;;;;;;2.78;1.40;;;;;;;31.42;50.83;100481.69;4993836;28;20152;-70
2023/07/31 11:51:14;;;;;;;1.77;1.40;;;;;;;31.35;51.84;100483.41;4993535;28;20046;-70
2023/07/31 11:53:49;;;;;;;1.60;1.50;;;;;;;31.53;50.67;100487.97;4993685;28;20058;-70
2023/07/31 11:56:18;;;;;;;1.88;1.50;;;;;;;31.22;51.41;100485.97;4993740;28;20069;-70
2023/07/31 11:58:55;;;;;;;1.92;1.40;;;;;;;31.87;52.13;100481.34;4993874;28;20061;-69
2023/07/31 12:01:24;;;;;;;1.63;0.95;;;;;;;32.34;50.15;100485.34;4994052;28;20050;-69
2023/07/31 12:03:53;;;;;;;2.53;1.42;;;;;;;32.15;50.73;100490.56;4993913;28;20039;-69
2023/07/31 12:06:22;;;;;;;2.28;1.45;;;;;;;32.00;51.44;100480.72;4994228;28;20077;-69
2023/07/31 12:08:50;;;;;;;2.05;1.55;;;;;;;31.41;51.78;100474.44;4994094;28;20062;-68
2023/07/31 12:11:19;;;;;;;1.98;1.88;;;;;;;31.56;51.02;100475.00;4994157;28;20054;-69
2023/07/31 12:13:48;;;;;;;1.92;1.55;;;;;;;31.71;52.04;100467.09;4992443;28;20051;-68
2023/07/31 12:16:16;;;;;;;2.05;1.70;;;;;;;31.60;50.56;100462.41;4993846;28;20062;-68
2023/07/31 12:18:45;;;;;;;1.65;1.33;;;;;;;32.32;50.74;100462.34;4994565;28;20049;-68
2023/07/31 12:21:17;;;;;;;3.03;1.27;;;;;;;32.38;46.37;100466.28;4993865;28;20042;-67
2023/07/31 12:23:50;;;;;;;1.20;1.10;;;;;;;32.38;43.76;100459.81;4993644;28;20043;-68
2023/07/31 12:26:19;;;;;;;2.00;1.13;;;;;;;31.83;46.89;100472.13;4993468;28;20081;-68
2023/07/31 12:28:54;;;;;;;1.33;1.23;;;;;;;32.08;49.94;100447.44;4993899;28;20073;-68
2023/07/31 12:31:29;;;;;;;1.70;1.10;;;;;;;31.33;47.73;100432.13;4992825;28;20050;-69
2023/07/31 12:33:58;;;;;;;1.23;1.13;;;;;;;32.16;49.80;100431.94;4992778;28;20413;-69
2023/07/31 12:36:35;;;;;;;2.55;1.30;;;;;;;32.71;46.90;100434.50;4992433;28;20063;-70
2023/07/31 12:39:05;;;;;;;1.45;1.35;;;;;;;32.25;43.88;100428.53;4993318;28;20397;-70
2023/07/31 12:41:34;;;;;;;1.55;1.45;;;;;;;32.19;45.89;100422.56;4993075;28;20395;-69
2023/07/31 12:44:03;;;;;;;1.95;1.33;;;;;;;33.00;47.22;100414.03;4992493;28;20050;-69
2023/07/31 12:46:31;;;;;;;1.38;1.27;;;;;;;32.76;44.29;100421.84;4992881;28;20050;-69
2023/07/31 12:49:00;;;;;;;1.23;1.13;;;;;;;32.69;44.57;100417.91;4992859;28;20050;-70
2023/07/31 12:51:28;;;;;;;1.38;1.10;;;;;;;32.31;47.29;100412.63;4994921;28;20057;-70
2023/07/31 12:53:56;;;;;;;1.50;0.95;;;;;;;32.11;45.27;100412.63;4996575;28;20046;-70
2023/07/31 12:56:25;;;;;;;1.05;0.82;;;;;;;32.24;44.38;100413.56;4996613;28;20116;-70
2023/07/31 12:58:54;;;;;;;1.05;0.98;;;;;;;32.84;41.49;100418.41;4997182;28;20054;-69
2023/07/31 13:01:22;;;;;;;2.13;1.30;;;;;;;32.74;44.07;100412.97;4997157;28;20046;-70
2023/07/31 13:03:51;;;;;;;1.45;1.08;;;;;;;32.86;45.65;100395.31;4996977;28;20062;-70
2023/07/31 13:06:20;;;;;;;1.08;0.90;;;;;;;33.13;44.26;100399.94;4996651;28;20491;-70
2023/07/31 13:08:48;;;;;;;0.85;0.82;;;;;;;32.60;43.17;100409.25;4995935;28;20061;-69
2023/07/31 13:11:17;;;;;;;1.27;1.17;;;;;;;32.27;43.88;100398.56;4997026;28;20437;-69
2023/07/31 13:13:45;;;;;;;2.65;1.13;;;;;;;32.16;44.45;100390.28;4997015;28;20054;-69
2023/07/31 13:16:14;;;;;;;1.73;1.30;;;;;;;31.81;43.10;100392.53;4996940;28;20089;-69
2023/07/31 13:18:43;;;;;;;2.22;1.23;;;;;;;32.91;47.04;100371.31;4996818;28;20050;-69
2023/07/31 13:21:11;;;;;;;0.68;0.68;;;;;;;32.95;40.81;100377.69;4996793;28;20050;-69
2023/07/31 13:23:41;;;;;;;1.13;1.10;;;;;;;33.23;40.76;100373.38;4997006;28;20054;-69
2023/07/31 13:26:09;;;;;;;1.67;1.13;;;;;;;32.80;41.42;100374.41;5011459;28;20055;-70
2023/07/31 13:28:38;;;;;;;1.15;1.10;;;;;;;32.18;43.16;100368.00;4996810;28;20050;-70
2023/07/31 13:31:07;;;;;;;1.10;1.00;;;;;;;33.16;41.96;100367.09;4963943;28;20050;-70
2023/07/31 13:33:36;;;;;;;0.93;0.90;;;;;;;32.83;39.94;100360.16;4994871;28;20511;-69
2023/07/31 13:36:07;;;;;;;0.80;0.80;;;;;;;33.08;43.51;100358.00;4997101;28;20065;-70
2023/07/31 13:38:36;;;;;;;1.20;1.10;;;;;;;33.08;44.41;100355.16;4996592;28;20047;-69